createdAt,value
2022-12-13T00:00:48.179Z,63.40
2022-12-13T00:02:49.947Z,63.40
2022-12-13T00:04:53.083Z,63.40
2022-12-13T00:06:54.813Z,63.40
2022-12-13T00:08:57.043Z,63.50
2022-12-13T00:11:02.011Z,63.50
2022-12-13T00:13:04.535Z,63.60
2022-12-13T00:15:06.962Z,63.50
2022-12-13T00:17:08.633Z,63.60
2022-12-13T00:19:10.496Z,63.60
2022-12-13T00:21:13.648Z,63.70
2022-12-13T00:23:15.324Z,63.80
2022-12-13T00:25:19.819Z,63.60
2022-12-13T00:27:21.597Z,63.50
2022-12-13T00:29:23.267Z,63.40
2022-12-13T00:33:47.538Z,63.50
2022-12-13T00:35:49.303Z,63.50
2022-12-13T00:37:51.138Z,63.70
2022-12-13T00:39:52.782Z,63.60
2022-12-13T00:41:54.527Z,63.80
2022-12-13T00:43:56.321Z,63.90
2022-12-13T00:45:57.988Z,63.90
2022-12-13T00:48:00.150Z,63.70
2022-12-13T00:50:02.210Z,63.70
2022-12-13T00:52:03.947Z,63.80
2022-12-13T00:54:06.083Z,63.90
2022-12-13T00:56:14.674Z,63.70
2022-12-13T00:58:16.296Z,63.60
2022-12-13T01:00:18.052Z,63.50
2022-12-13T01:02:19.724Z,63.40
2022-12-13T01:04:21.407Z,63.70
2022-12-13T01:06:26.001Z,63.80
2022-12-13T01:08:28.873Z,63.80
2022-12-13T01:10:30.637Z,63.80
2022-12-13T01:12:33.058Z,63.80
2022-12-13T01:14:35.372Z,63.80
2022-12-13T01:16:37.373Z,63.70
2022-12-13T01:18:39.642Z,63.80
2022-12-13T01:20:41.268Z,63.60
2022-12-13T01:22:42.939Z,63.50
2022-12-13T01:24:44.656Z,63.50
2022-12-13T01:26:46.351Z,63.50
2022-12-13T01:28:48.476Z,63.50
2022-12-13T01:30:57.544Z,63.80
2022-12-13T01:32:59.228Z,63.80
2022-12-13T01:35:01.455Z,63.70
2022-12-13T01:37:03.113Z,63.80
2022-12-13T01:39:14.403Z,63.90
2022-12-13T01:41:18.444Z,64.10
2022-12-13T01:43:20.101Z,64.10
2022-12-13T01:45:23.480Z,63.90
2022-12-13T01:47:28.447Z,64.00
2022-12-13T01:49:30.180Z,64.20
2022-12-13T01:51:38.545Z,64.10
2022-12-13T01:53:42.217Z,63.90
2022-12-13T01:55:44.711Z,64.00
2022-12-13T01:57:47.033Z,64.20
2022-12-13T01:59:49.044Z,64.20
2022-12-13T02:01:50.976Z,64.00
2022-12-13T02:03:52.679Z,64.00
2022-12-13T02:05:57.342Z,64.10
2022-12-13T02:08:03.389Z,64.10
2022-12-13T02:10:06.278Z,63.90
2022-12-13T02:12:08.352Z,64.90
2022-12-13T02:14:10.382Z,64.00
2022-12-13T02:16:27.138Z,63.90
2022-12-13T02:18:28.787Z,63.80
2022-12-13T02:20:45.705Z,63.80
2022-12-13T02:22:50.464Z,63.80
2022-12-13T02:24:52.125Z,63.60
2022-12-13T02:26:56.696Z,63.60
2022-12-13T02:29:30.099Z,63.70
2022-12-13T02:31:40.963Z,63.80
2022-12-13T02:33:42.634Z,64.00
2022-12-13T02:35:53.423Z,64.10
2022-12-13T02:38:01.603Z,64.20
2022-12-13T02:40:07.398Z,64.30
2022-12-13T02:42:21.558Z,64.30
2022-12-13T02:44:29.022Z,64.40
2022-12-13T02:46:33.140Z,64.20
2022-12-13T02:48:36.721Z,64.20
2022-12-13T02:50:39.178Z,64.20
2022-12-13T02:52:42.960Z,64.20
2022-12-13T02:54:44.578Z,64.10
2022-12-13T02:57:04.225Z,64.20
2022-12-13T02:59:11.808Z,64.40
2022-12-13T03:01:27.761Z,64.50
2022-12-13T03:03:31.021Z,64.50
2022-12-13T03:05:54.653Z,64.40
2022-12-13T03:07:56.348Z,64.50
2022-12-13T03:10:14.867Z,64.40
2022-12-13T03:12:53.399Z,64.40
2022-12-13T03:14:55.074Z,64.20
2022-12-13T03:16:58.954Z,64.10
2022-12-13T03:19:01.977Z,64.00
2022-12-13T03:21:08.915Z,63.90
2022-12-13T03:23:11.193Z,64.10
2022-12-13T03:25:13.304Z,64.20
2022-12-13T03:27:34.066Z,64.40
2022-12-13T03:29:35.706Z,64.20
2022-12-13T03:31:37.405Z,64.40
2022-12-13T03:33:39.235Z,64.40
2022-12-13T03:35:44.761Z,64.40
2022-12-13T03:37:47.712Z,64.40
2022-12-13T03:39:49.481Z,64.40
2022-12-13T03:41:51.423Z,64.30
2022-12-13T03:43:53.155Z,64.30
2022-12-13T03:45:55.195Z,64.20
2022-12-13T03:47:56.866Z,65.10
2022-12-13T03:49:58.514Z,64.30
2022-12-13T03:52:20.224Z,64.40
2022-12-13T03:54:21.960Z,64.30
2022-12-13T03:56:23.715Z,63.80
2022-12-13T03:58:25.371Z,63.80
2022-12-13T04:00:27.081Z,64.10
2022-12-13T04:02:35.356Z,64.00
2022-12-13T04:04:37.038Z,63.80
2022-12-13T04:06:38.711Z,63.80
2022-12-13T04:08:42.166Z,63.90
2022-12-13T04:10:43.886Z,64.00
2022-12-13T04:13:03.908Z,64.10
2022-12-13T04:15:05.906Z,64.10
2022-12-13T04:17:07.547Z,64.70
2022-12-13T04:19:09.241Z,63.70
2022-12-13T04:21:10.938Z,63.80
2022-12-13T04:23:12.684Z,63.90
2022-12-13T04:25:14.675Z,63.90
2022-12-13T04:27:17.004Z,64.60
2022-12-13T04:29:19.083Z,63.40
2022-12-13T04:31:20.822Z,63.10
2022-12-13T04:33:22.985Z,63.50
2022-12-13T04:35:24.878Z,63.80
2022-12-13T04:37:26.581Z,63.90
2022-12-13T04:39:28.217Z,64.00
2022-12-13T04:41:37.392Z,63.90
2022-12-13T04:43:38.999Z,63.70
2022-12-13T04:45:40.815Z,63.70
2022-12-13T04:47:43.001Z,63.60
2022-12-13T04:49:44.698Z,63.30
2022-12-13T04:51:47.843Z,63.50
2022-12-13T04:53:49.994Z,63.50
2022-12-13T04:55:52.672Z,63.50
2022-12-13T04:57:54.316Z,63.40
2022-12-13T04:59:55.970Z,63.20
2022-12-13T05:01:57.663Z,63.20
2022-12-13T05:03:59.343Z,63.20
2022-12-13T05:06:04.585Z,63.10
2022-12-13T05:08:06.612Z,63.20
2022-12-13T05:10:09.502Z,63.40
2022-12-13T05:12:22.114Z,63.90
2022-12-13T05:14:24.998Z,63.40
2022-12-13T05:16:26.682Z,63.20
2022-12-13T05:18:28.798Z,63.10
2022-12-13T05:20:30.566Z,63.10
2022-12-13T05:22:32.295Z,62.90
2022-12-13T05:24:33.970Z,62.80
2022-12-13T05:26:35.663Z,62.80
2022-12-13T05:28:37.314Z,63.00
2022-12-13T05:30:39.558Z,63.00
2022-12-13T05:32:43.871Z,62.80
2022-12-13T05:34:46.119Z,62.80
2022-12-13T05:36:47.768Z,63.00
2022-12-13T05:38:49.374Z,63.00
2022-12-13T05:40:51.014Z,62.90
2022-12-13T05:43:01.324Z,63.00
2022-12-13T05:45:03.645Z,62.90
2022-12-13T05:47:05.358Z,62.90
2022-12-13T05:49:07.202Z,62.90
2022-12-13T05:51:11.107Z,63.00
2022-12-13T05:53:13.431Z,62.70
2022-12-13T05:55:32.985Z,62.70
2022-12-13T05:57:34.913Z,62.50
2022-12-13T05:59:36.594Z,62.50
2022-12-13T06:01:44.069Z,62.50
2022-12-13T06:03:46.006Z,62.60
2022-12-13T06:05:47.714Z,62.60
2022-12-13T06:07:53.591Z,62.60
2022-12-13T06:10:10.603Z,62.80
2022-12-13T06:12:31.107Z,62.60
2022-12-13T06:14:34.141Z,62.50
2022-12-13T06:16:36.611Z,62.60
2022-12-13T06:18:38.352Z,62.70
2022-12-13T06:20:40.005Z,62.50
2022-12-13T06:22:42.548Z,62.50
2022-12-13T06:24:44.311Z,62.30
2022-12-13T06:26:46.517Z,62.20
2022-12-13T06:28:48.205Z,62.40
2022-12-13T06:30:52.378Z,62.40
2022-12-13T06:32:54.131Z,62.60
2022-12-13T06:34:56.791Z,62.70
2022-12-13T06:36:58.659Z,62.80
2022-12-13T06:39:06.337Z,62.70
2022-12-13T06:41:15.128Z,62.70
2022-12-13T06:43:17.111Z,62.60
2022-12-13T06:45:18.742Z,62.80
2022-12-13T06:47:31.438Z,63.00
2022-12-13T06:49:34.172Z,62.70
2022-12-13T06:51:35.864Z,62.50
2022-12-13T06:53:38.333Z,62.50
2022-12-13T06:55:40.019Z,62.40
2022-12-13T06:57:41.891Z,62.10
2022-12-13T06:59:43.965Z,62.20
2022-12-13T07:01:50.713Z,63.20
2022-12-13T07:03:56.231Z,62.40
2022-12-13T07:05:59.114Z,62.40
2022-12-13T07:08:00.822Z,62.10
2022-12-13T07:10:02.518Z,62.30
2022-12-13T07:12:05.193Z,62.20
2022-12-13T07:14:07.661Z,62.10
2022-12-13T07:16:09.999Z,61.80
2022-12-13T07:18:12.776Z,62.00
2022-12-13T07:20:15.801Z,62.10
2022-12-13T07:22:17.479Z,62.40
2022-12-13T07:24:19.116Z,62.50
2022-12-13T07:26:20.860Z,62.50
2022-12-13T07:28:22.647Z,62.70
2022-12-13T07:30:24.306Z,62.70
2022-12-13T07:32:26.377Z,62.70
2022-12-13T07:34:28.016Z,62.60
2022-12-13T07:36:29.702Z,62.60
2022-12-13T07:38:31.402Z,62.50
2022-12-13T07:40:33.823Z,62.50
2022-12-13T07:42:35.631Z,62.30
2022-12-13T07:44:37.992Z,62.40
2022-12-13T07:46:39.735Z,62.40
2022-12-13T07:48:41.409Z,62.30
2022-12-13T07:50:43.288Z,62.10
2022-12-13T07:52:44.942Z,62.20
2022-12-13T07:54:46.582Z,62.50
2022-12-13T07:56:48.254Z,62.70
2022-12-13T07:58:49.959Z,63.20
2022-12-13T08:00:51.632Z,62.50
2022-12-13T08:02:53.304Z,62.50
2022-12-13T08:04:55.427Z,62.20
2022-12-13T08:06:57.279Z,62.50
2022-12-13T08:08:58.936Z,62.60
2022-12-13T08:11:01.774Z,62.70
2022-12-13T08:13:04.024Z,62.30
2022-12-13T08:15:12.326Z,62.60
2022-12-13T08:17:15.538Z,62.70
2022-12-13T08:19:17.210Z,62.80
2022-12-13T08:21:52.366Z,62.90
2022-12-13T08:23:41.048Z,62.50
2022-12-13T08:25:42.718Z,62.30
2022-12-13T08:27:44.471Z,62.10
2022-12-13T08:29:46.195Z,61.40
2022-12-13T08:31:47.913Z,61.50
2022-12-13T08:33:49.636Z,61.70
2022-12-13T08:35:51.337Z,61.60
2022-12-13T08:37:52.981Z,62.00
2022-12-13T08:39:54.709Z,61.70
2022-12-13T08:41:56.382Z,61.80
2022-12-13T08:43:58.159Z,61.70
2022-12-13T11:16:26.046Z,58.40
2022-12-13T11:18:31.355Z,57.40
2022-12-13T11:20:34.516Z,57.20
2022-12-13T11:22:37.602Z,57.90
2022-12-13T11:24:40.748Z,57.20
2022-12-13T11:26:47.787Z,57.70
2022-12-13T11:28:57.921Z,57.40
2022-12-13T11:31:19.404Z,57.60
2022-12-13T11:33:48.064Z,57.30
2022-12-13T11:35:56.712Z,57.50
2022-12-13T11:38:16.423Z,57.40
2022-12-13T11:40:21.517Z,57.60
2022-12-13T11:42:32.001Z,57.60
2022-12-13T11:44:36.547Z,57.50
2022-12-13T11:46:52.095Z,57.10
2022-12-13T11:48:56.275Z,57.40
2022-12-13T11:50:59.693Z,57.50
2022-12-13T11:53:14.226Z,57.00
2022-12-13T11:55:18.582Z,57.50
2022-12-13T11:57:41.758Z,57.60
2022-12-13T11:59:47.320Z,57.30
2022-12-13T12:02:16.969Z,57.50
2022-12-13T12:04:23.732Z,57.30
2022-12-13T12:06:44.342Z,57.40
2022-12-13T12:09:06.083Z,57.30
2022-12-13T12:11:10.474Z,57.50
2022-12-13T12:13:34.159Z,56.90
2022-12-13T12:16:02.070Z,56.90
2022-12-13T12:18:03.858Z,56.40
2022-12-13T12:20:06.969Z,56.80
2022-12-13T12:22:27.208Z,57.00
2022-12-13T12:24:41.208Z,56.60
2022-12-13T12:26:47.126Z,56.60
2022-12-13T12:28:57.671Z,56.50
2022-12-13T12:31:03.153Z,56.60
2022-12-13T12:33:23.736Z,56.50
2022-12-13T12:35:46.338Z,56.20
2022-12-13T12:37:53.549Z,56.10
2022-12-13T12:40:07.214Z,56.00
2022-12-13T12:42:27.715Z,55.70
2022-12-13T12:44:40.789Z,55.50
2022-12-13T12:47:01.700Z,56.10
2022-12-13T12:49:36.142Z,55.30
2022-12-13T12:52:01.928Z,55.00
2022-12-13T12:54:15.823Z,55.30
2022-12-13T12:56:20.657Z,54.50
2022-12-13T12:58:28.948Z,54.70
2022-12-13T13:00:36.173Z,54.60
2022-12-13T13:02:45.953Z,55.00
2022-12-13T13:04:57.916Z,54.60
2022-12-13T13:07:02.509Z,55.80
2022-12-13T13:09:09.185Z,55.40
2022-12-13T13:11:24.414Z,55.30
2022-12-13T13:13:46.132Z,55.40
2022-12-13T13:15:56.214Z,55.30
2022-12-13T13:17:59.492Z,55.70
2022-12-13T13:20:16.646Z,55.40
2022-12-13T13:22:31.385Z,55.40
2022-12-13T13:24:34.694Z,55.70
2022-12-13T13:26:40.601Z,55.80
2022-12-13T13:28:42.234Z,55.00
2022-12-13T13:31:04.317Z,55.30
2022-12-13T13:33:26.408Z,55.10
2022-12-13T13:35:28.884Z,54.60
2022-12-13T13:37:47.359Z,54.60
2022-12-13T13:39:55.696Z,54.60
2022-12-13T13:42:16.989Z,55.00
2022-12-13T13:44:59.895Z,54.70
2022-12-13T13:47:10.803Z,54.60
2022-12-13T13:49:15.133Z,55.20
2022-12-13T13:51:41.395Z,55.00
2022-12-13T13:53:51.745Z,55.00
2022-12-13T13:56:01.596Z,55.30
2022-12-13T13:58:29.017Z,55.20
2022-12-13T14:00:49.185Z,54.50
2022-12-13T14:03:22.420Z,54.90
2022-12-13T14:05:32.520Z,55.10
2022-12-13T14:07:40.040Z,55.50
2022-12-13T14:10:00.552Z,55.60
2022-12-13T14:12:28.737Z,55.40
2022-12-13T14:14:49.909Z,55.80
2022-12-13T14:16:54.751Z,55.90
2022-12-13T14:19:11.633Z,55.90
2022-12-13T14:21:35.740Z,55.50
2022-12-13T14:23:37.339Z,55.60
2022-12-13T14:25:40.378Z,54.90
2022-12-13T14:27:46.145Z,54.70
2022-12-13T14:29:58.263Z,55.30
2022-12-13T14:32:00.541Z,55.30
2022-12-13T14:34:03.796Z,55.60
2022-12-13T14:36:05.570Z,55.80
2022-12-13T14:38:20.311Z,55.80
2022-12-13T14:40:32.938Z,55.30
2022-12-13T14:42:34.767Z,55.50
2022-12-13T14:44:37.197Z,55.30
2022-12-13T14:46:47.956Z,55.30
2022-12-13T14:48:53.953Z,55.40
2022-12-13T14:50:55.824Z,55.30
2022-12-13T14:52:57.811Z,55.50
2022-12-13T14:55:01.082Z,55.60
2022-12-13T14:57:04.505Z,55.50
2022-12-13T14:59:11.894Z,55.10
2022-12-13T15:01:33.973Z,54.70
2022-12-13T15:03:35.786Z,54.90
2022-12-13T15:05:50.601Z,55.10
2022-12-13T15:07:53.245Z,55.00
2022-12-13T15:10:06.060Z,55.20
2022-12-13T15:12:24.395Z,55.20
2022-12-13T15:14:27.428Z,55.40
2022-12-13T15:16:29.324Z,55.30
2022-12-13T15:18:37.121Z,55.30
2022-12-13T15:20:49.836Z,55.50
2022-12-13T15:22:59.548Z,55.50
2022-12-13T15:25:05.889Z,55.50
2022-12-13T15:27:17.892Z,55.20
2022-12-13T15:29:20.920Z,55.50
2022-12-13T15:31:23.394Z,55.40
2022-12-13T15:33:33.133Z,55.30
2022-12-13T15:35:37.481Z,55.20
2022-12-13T15:37:39.724Z,55.50
2022-12-13T15:39:47.997Z,55.70
2022-12-13T15:41:50.628Z,55.80
2022-12-13T15:43:56.221Z,55.60
2022-12-13T15:45:58.129Z,55.60
2022-12-13T15:47:59.943Z,55.70
2022-12-13T15:50:02.829Z,55.50
2022-12-13T15:52:24.239Z,55.60
2022-12-13T15:54:27.514Z,55.60
2022-12-13T15:56:30.625Z,55.60
2022-12-13T15:58:34.014Z,55.20
2022-12-13T16:00:35.693Z,54.90
2022-12-13T16:02:46.819Z,54.90
2022-12-13T16:04:49.332Z,55.20
2022-12-13T16:06:55.688Z,55.00
2022-12-13T16:08:59.631Z,55.20
2022-12-13T16:11:01.806Z,55.30
2022-12-13T16:13:08.461Z,55.40
2022-12-13T16:15:20.488Z,54.60
2022-12-13T16:17:32.803Z,55.00
2022-12-13T16:19:34.534Z,54.90
2022-12-13T16:21:36.309Z,54.50
2022-12-13T16:23:38.115Z,54.20
2022-12-13T16:25:40.384Z,54.20
2022-12-13T16:27:42.192Z,54.70
2022-12-13T16:29:44.257Z,54.80
2022-12-13T16:31:45.984Z,55.00
2022-12-13T16:33:47.752Z,54.80
2022-12-13T16:35:49.672Z,54.60
2022-12-13T16:37:53.550Z,54.70
2022-12-13T16:40:05.860Z,55.00
2022-12-13T16:42:07.527Z,55.20
2022-12-13T16:44:11.038Z,55.70
2022-12-13T16:47:16.681Z,55.20
2022-12-13T16:48:37.006Z,55.40
2022-12-13T16:50:41.638Z,55.50
2022-12-13T16:52:43.467Z,54.90
2022-12-13T16:54:45.143Z,55.10
2022-12-13T16:56:48.190Z,55.40
2022-12-13T16:58:50.640Z,55.40
2022-12-13T17:00:52.906Z,55.20
2022-12-13T17:03:00.989Z,55.20
2022-12-13T17:05:03.182Z,55.10
2022-12-13T17:07:04.836Z,54.80
2022-12-13T17:09:06.664Z,55.00
2022-12-13T17:11:14.596Z,55.10
2022-12-13T17:13:17.958Z,54.80
2022-12-13T17:15:19.813Z,55.10
2022-12-13T17:17:21.561Z,55.20
2022-12-13T17:19:23.474Z,54.90
2022-12-13T17:21:25.735Z,54.80
2022-12-13T17:23:27.834Z,55.20
2022-12-13T17:25:29.763Z,55.10
2022-12-13T17:27:31.659Z,55.00
2022-12-13T17:29:34.032Z,55.40
2022-12-13T17:31:36.456Z,54.60
2022-12-13T17:33:38.367Z,54.60
2022-12-13T17:35:40.062Z,54.90
2022-12-13T17:37:43.226Z,55.10
2022-12-13T17:39:44.872Z,55.00
2022-12-13T17:41:55.129Z,55.00
2022-12-13T17:43:58.196Z,54.70
2022-12-13T17:46:11.184Z,54.90
2022-12-13T17:48:13.132Z,55.00
2022-12-13T17:50:15.490Z,54.90
2022-12-13T17:52:17.606Z,55.00
2022-12-13T17:54:19.907Z,55.00
2022-12-13T17:56:22.098Z,55.40
2022-12-13T17:58:24.254Z,55.40
2022-12-13T18:00:26.231Z,55.70
2022-12-13T18:02:28.415Z,55.20
2022-12-13T18:04:36.151Z,55.30
2022-12-13T18:06:38.563Z,55.80
2022-12-13T18:08:42.372Z,55.20
2022-12-13T18:11:08.638Z,55.00
2022-12-13T18:13:13.486Z,54.70
2022-12-13T18:15:15.290Z,55.10
2022-12-13T18:17:19.150Z,55.40
2022-12-13T18:19:20.811Z,55.20
2022-12-13T18:21:23.138Z,55.30
2022-12-13T18:23:25.189Z,55.40
2022-12-13T18:25:27.120Z,55.60
2022-12-13T18:27:28.759Z,55.90
2022-12-13T18:29:30.471Z,55.60
2022-12-13T18:31:32.382Z,55.60
2022-12-13T18:33:34.430Z,55.60
2022-12-13T18:35:36.105Z,55.40
2022-12-13T18:37:37.785Z,55.70
2022-12-13T18:39:39.472Z,55.10
2022-12-13T18:41:41.223Z,55.20
2022-12-13T18:43:43.770Z,55.50
2022-12-13T18:45:45.522Z,55.30
2022-12-13T18:47:47.234Z,55.20
2022-12-13T18:49:54.827Z,55.30
2022-12-13T18:51:57.172Z,55.10
2022-12-13T18:53:59.287Z,55.30
2022-12-13T18:56:05.706Z,55.30
2022-12-13T18:58:07.396Z,55.40
2022-12-13T19:00:09.440Z,55.80
2022-12-13T19:02:12.864Z,55.50
2022-12-13T19:04:14.850Z,55.50
2022-12-13T19:06:19.306Z,55.40
2022-12-13T19:08:26.220Z,55.80
2022-12-13T19:10:28.191Z,55.70
2022-12-13T19:12:30.567Z,55.80
2022-12-13T19:14:32.393Z,55.60
2022-12-13T19:16:34.161Z,55.30
2022-12-13T19:18:37.055Z,55.50
2022-12-13T19:20:38.842Z,55.30
2022-12-13T19:22:40.647Z,55.40
2022-12-13T19:24:42.441Z,55.30
2022-12-13T19:26:44.194Z,55.60
2022-12-13T19:28:46.648Z,55.80
2022-12-13T19:30:48.455Z,55.70
2022-12-13T19:32:50.414Z,55.80
2022-12-13T19:34:52.184Z,55.60
2022-12-13T19:36:54.029Z,55.70
2022-12-13T19:38:56.171Z,55.50
2022-12-13T19:40:57.819Z,55.10
2022-12-13T19:42:59.514Z,55.40
2022-12-13T19:45:01.228Z,55.20
2022-12-13T19:47:02.905Z,55.30
2022-12-13T19:49:04.629Z,55.10
2022-12-13T19:51:07.603Z,55.10
2022-12-13T19:53:09.369Z,55.10
2022-12-13T19:55:11.047Z,55.30
2022-12-13T19:57:13.600Z,55.30
2022-12-13T19:59:15.591Z,55.20
2022-12-13T20:01:17.574Z,55.50
2022-12-13T20:03:19.378Z,55.40
2022-12-13T20:05:21.206Z,55.30
2022-12-13T20:07:23.821Z,55.60
2022-12-13T20:09:25.623Z,55.70
2022-12-13T20:11:28.092Z,55.50
2022-12-13T20:13:30.308Z,55.40
2022-12-13T20:15:32.285Z,55.20
2022-12-13T20:17:35.232Z,55.30
2022-12-13T20:19:36.941Z,54.90
2022-12-13T20:21:38.714Z,54.50
2022-12-13T20:23:41.446Z,54.20
2022-12-13T20:25:58.558Z,54.80
2022-12-13T20:28:00.311Z,55.00
2022-12-13T20:30:02.025Z,55.20
2022-12-13T20:32:03.862Z,55.40
2022-12-13T20:34:14.108Z,55.40
2022-12-13T20:36:26.194Z,55.00
2022-12-13T20:38:28.602Z,55.10
2022-12-13T20:40:30.322Z,55.00
2022-12-13T20:42:33.029Z,55.30
2022-12-13T20:44:34.922Z,55.40
2022-12-13T20:46:37.183Z,55.10
2022-12-13T20:48:40.174Z,55.20
2022-12-13T20:50:41.941Z,55.40
2022-12-13T20:52:50.867Z,55.00
2022-12-13T20:54:52.692Z,55.00
2022-12-13T20:56:54.445Z,55.20
2022-12-13T20:58:56.298Z,55.00
2022-12-13T21:00:58.088Z,55.10
2022-12-13T21:02:59.849Z,55.40
2022-12-13T21:05:01.644Z,55.30
2022-12-13T21:07:03.484Z,55.70
2022-12-13T21:09:07.602Z,55.80
2022-12-13T21:11:24.365Z,55.70
2022-12-13T21:13:26.574Z,55.30
2022-12-13T21:15:28.693Z,55.50
2022-12-13T21:17:30.436Z,55.60
2022-12-13T21:19:39.847Z,55.80
2022-12-13T21:21:42.771Z,55.60
2022-12-13T21:23:44.442Z,55.60
2022-12-13T21:25:46.202Z,55.80
2022-12-13T21:27:49.864Z,55.70
2022-12-13T21:29:51.670Z,55.40
2022-12-13T21:31:54.717Z,55.60
2022-12-13T21:33:57.568Z,55.80
2022-12-13T21:36:07.669Z,55.40
2022-12-13T21:38:09.375Z,55.30
2022-12-13T21:40:11.182Z,55.40
2022-12-13T21:42:13.896Z,55.60
2022-12-13T21:44:16.398Z,55.60
2022-12-13T21:46:22.674Z,55.40
2022-12-13T21:48:24.341Z,55.60
2022-12-13T21:50:26.036Z,55.40
2022-12-13T21:52:27.813Z,55.30
2022-12-13T21:54:29.527Z,55.10
2022-12-13T21:56:49.745Z,55.40
2022-12-13T21:59:09.912Z,55.10
2022-12-13T22:01:11.643Z,55.20
2022-12-13T22:03:13.454Z,55.50
2022-12-13T22:05:15.184Z,55.60
2022-12-13T22:07:20.094Z,55.30
2022-12-13T22:09:21.839Z,55.10
2022-12-13T22:11:23.552Z,55.20
2022-12-13T22:13:25.779Z,55.50
2022-12-13T22:15:27.596Z,55.60
2022-12-13T22:17:35.090Z,56.10
2022-12-13T22:19:38.080Z,56.20
2022-12-13T22:21:41.058Z,56.10
2022-12-13T22:23:42.740Z,56.40
2022-12-13T22:25:44.439Z,56.20
2022-12-13T22:27:50.153Z,56.30
2022-12-13T22:29:52.646Z,56.10
2022-12-13T22:31:54.423Z,55.10
2022-12-13T22:33:57.207Z,55.00
2022-12-13T22:36:00.943Z,55.30
2022-12-13T22:38:06.249Z,55.30
2022-12-13T22:40:08.579Z,55.40
2022-12-13T22:42:13.359Z,55.30
2022-12-13T22:44:16.293Z,55.40
2022-12-13T22:46:19.543Z,55.20
2022-12-13T22:48:21.567Z,55.40
2022-12-13T22:50:24.254Z,55.60
2022-12-13T22:52:31.895Z,55.90
2022-12-13T22:54:36.454Z,55.80
2022-12-13T22:56:38.259Z,55.50
2022-12-13T22:58:40.543Z,55.70
2022-12-13T23:00:42.452Z,55.60
2022-12-13T23:02:44.220Z,55.70
2022-12-13T23:04:45.885Z,56.00
2022-12-13T23:06:47.514Z,56.00
2022-12-13T23:08:50.204Z,56.10
2022-12-13T23:11:11.804Z,56.40
2022-12-13T23:13:14.127Z,56.60
2022-12-13T23:15:15.804Z,56.70
2022-12-13T23:17:18.062Z,56.50
2022-12-13T23:21:48.390Z,55.80
2022-12-13T23:23:50.899Z,56.00
2022-12-13T23:25:52.744Z,56.30
2022-12-13T23:27:54.334Z,56.40
2022-12-13T23:29:56.058Z,56.40
2022-12-13T23:31:58.099Z,56.50
2022-12-13T23:33:59.943Z,56.20
2022-12-13T23:36:07.910Z,56.20
2022-12-13T23:38:11.333Z,56.20
2022-12-13T23:40:13.021Z,56.00
2022-12-13T23:42:15.626Z,56.30
2022-12-13T23:44:17.318Z,56.30
2022-12-13T23:46:23.104Z,56.30
2022-12-13T23:48:27.069Z,56.20
2022-12-13T23:50:28.899Z,55.70
2022-12-13T23:52:30.644Z,55.90
2022-12-13T23:54:32.304Z,56.20
2022-12-13T23:56:34.005Z,56.20
2022-12-13T23:58:36.776Z,56.10
